Time;durP1;ratioP1;P1;durP2;ratioP2;P2;SDS_P1;SDS_P2;PMS_P1;PMS_P2;Temp;Humidity;BMP_temperature;BMP_pressure;BME280_temperature;BME280_humidity;BME280_pressure;Samples;Min_cycle;Max_cycle;Signal;HPM_P1;HPM_P2
2023/03/18 00:01:54;;;;;;;1.75;0.60;;;12.30;99.90;;;;;;5017680;28;20474;-82
2023/03/18 00:04:20;;;;;;;1.10;0.00;;;12.30;99.90;;;;;;5017457;28;20532;-82
2023/03/18 00:06:46;;;;;;;0.30;0.10;;;12.30;99.90;;;;;;5034919;28;20037;-82
2023/03/18 00:09:13;;;;;;;0.10;0.10;;;12.30;99.90;;;;;;5033865;28;20082;-83
2023/03/18 00:11:39;;;;;;;0.00;0.00;;;12.20;99.90;;;;;;5017359;28;20431;-82
2023/03/18 00:14:07;;;;;;;0.35;0.13;;;12.20;99.90;;;;;;5017349;28;20061;-82
2023/03/18 00:16:34;;;;;;;0.08;0.03;;;12.20;99.90;;;;;;5017022;28;20053;-82
2023/03/18 00:19:01;;;;;;;0.00;0.00;;;12.20;99.90;;;;;;5017496;28;20124;-82
2023/03/18 00:21:28;;;;;;;0.10;0.10;;;12.20;99.90;;;;;;5017031;28;20045;-82
2023/03/18 00:23:57;;;;;;;1.17;0.43;;;12.20;99.90;;;;;;5033390;28;20049;-82
2023/03/18 00:26:27;;;;;;;0.00;0.00;;;12.20;99.90;;;;;;5017235;28;20045;-82
2023/03/18 00:28:57;;;;;;;0.00;0.00;;;12.10;99.90;;;;;;5033723;28;20404;-82
2023/03/18 00:31:24;;;;;;;0.43;0.43;;;12.20;99.90;;;;;;5016893;28;20050;-82
2023/03/18 00:33:50;;;;;;;0.00;0.00;;;12.20;99.90;;;;;;5017026;28;20486;-82
2023/03/18 00:36:17;;;;;;;0.00;0.00;;;12.20;99.90;;;;;;5032983;28;20416;-82
2023/03/18 00:38:45;;;;;;;0.43;0.20;;;12.20;99.90;;;;;;5033161;28;20046;-82
2023/03/18 00:41:14;;;;;;;2.83;0.52;;;12.20;99.90;;;;;;5016664;28;20049;-82
2023/03/18 00:43:51;;;;;;;0.00;0.00;;;12.20;99.90;;;;;;5033429;28;20053;-82
2023/03/18 00:46:26;;;;;;;0.03;0.00;;;12.20;99.90;;;;;;5000402;28;20136;-82
2023/03/18 00:48:55;;;;;;;0.20;0.20;;;12.10;99.90;;;;;;5016690;28;20513;-82
2023/03/18 00:51:22;;;;;;;0.00;0.00;;;12.10;99.90;;;;;;5016663;28;20049;-82
2023/03/18 00:53:54;;;;;;;0.00;0.00;;;12.10;99.90;;;;;;5000192;28;20038;-82
2023/03/18 00:56:22;;;;;;;0.05;0.05;;;12.10;99.90;;;;;;5033106;28;20076;-82
2023/03/18 00:58:49;;;;;;;0.00;0.00;;;12.10;99.90;;;;;;5032861;28;20486;-82
2023/03/18 01:01:16;;;;;;;0.00;0.00;;;12.00;99.90;;;;;;5033019;28;20049;-82
2023/03/18 01:03:43;;;;;;;0.00;0.00;;;12.00;99.90;;;;;;5016554;28;20057;-82
2023/03/18 01:06:16;;;;;;;0.00;0.00;;;12.00;99.90;;;;;;5032772;28;20046;-82
2023/03/18 01:08:42;;;;;;;0.08;0.08;;;12.00;99.90;;;;;;5032550;28;20053;-82
2023/03/18 01:11:09;;;;;;;1.02;0.43;;;12.00;99.90;;;;;;5032629;28;20054;-82
2023/03/18 01:13:37;;;;;;;0.00;0.00;;;11.90;99.90;;;;;;5016371;28;20060;-82
2023/03/18 01:16:04;;;;;;;0.25;0.13;;;11.90;99.90;;;;;;5032323;28;20060;-82
2023/03/18 01:18:30;;;;;;;0.00;0.00;;;11.90;99.90;;;;;;5032579;28;20107;-82
2023/03/18 01:20:56;;;;;;;0.00;0.00;;;11.90;99.90;;;;;;5016285;28;20088;-82
2023/03/18 01:23:23;;;;;;;0.08;0.08;;;11.90;99.90;;;;;;5032777;28;20050;-82
2023/03/18 01:25:49;;;;;;;0.10;0.10;;;11.80;99.90;;;;;;5032268;28;20052;-82
2023/03/18 01:28:16;;;;;;;0.00;0.00;;;11.80;1.00;;;;;;5032448;28;20089;-82
2023/03/18 01:30:42;;;;;;;0.98;0.20;;;11.80;99.90;;;;;;5032435;28;20399;-82
2023/03/18 01:33:08;;;;;;;0.55;0.22;;;11.80;99.90;;;;;;5015909;28;20393;-82
2023/03/18 01:35:35;;;;;;;0.05;0.05;;;11.80;99.90;;;;;;5032550;28;20046;-83
2023/03/18 01:38:03;;;;;;;0.00;0.00;;;11.80;99.90;;;;;;4999666;28;20103;-82
2023/03/18 01:40:31;;;;;;;0.22;0.15;;;11.80;1.00;;;;;;5032432;28;20053;-82
2023/03/18 01:43:04;;;;;;;0.00;0.00;;;11.80;1.00;;;;;;5032278;28;20405;-82
2023/03/18 01:45:30;;;;;;;0.00;0.00;;;11.70;1.00;;;;;;5031698;28;20064;-82
2023/03/18 01:47:57;;;;;;;0.00;0.00;;;11.70;1.00;;;;;;5015805;28;20045;-83
2023/03/18 01:50:32;;;;;;;0.00;0.00;;;11.80;1.00;;;;;;5032446;28;20060;-82
2023/03/18 01:53:07;;;;;;;0.00;0.00;;;11.70;1.00;;;;;;5032376;28;20079;-82
2023/03/18 01:55:34;;;;;;;1.45;0.55;;;11.60;1.00;;;;;;5032575;28;20041;-82
2023/03/18 01:58:06;;;;;;;0.00;0.00;;;11.60;1.00;;;;;;5015512;28;20103;-83
2023/03/18 02:00:36;;;;;;;0.00;0.00;;;11.50;1.00;;;;;;5016046;28;20079;-83
2023/03/18 02:03:03;;;;;;;0.00;0.00;;;11.50;1.00;;;;;;5015589;28;20045;-83
2023/03/18 02:05:29;;;;;;;0.00;0.00;;;11.50;1.00;;;;;;5033170;28;20045;-83
2023/03/18 02:07:55;;;;;;;0.00;0.00;;;11.50;1.00;;;;;;5036223;28;20041;-83
2023/03/18 02:10:24;;;;;;;0.00;0.00;;;11.40;1.00;;;;;;5003256;28;20556;-82
2023/03/18 02:12:59;;;;;;;0.68;0.00;;;11.40;1.00;;;;;;5019325;28;20147;-83
2023/03/18 02:15:28;;;;;;;0.00;0.00;;;11.30;1.00;;;;;;5036096;28;20394;-83
2023/03/18 02:18:04;;;;;;;0.00;0.00;;;11.30;1.00;;;;;;5035734;28;20107;-82
2023/03/18 02:20:55;;;;;;;0.47;0.10;;;11.30;1.00;;;;;;5035858;28;20041;-83
2023/03/18 02:23:52;;;;;;;0.00;0.00;;;11.20;1.00;;;;;;5035838;28;20053;-83
2023/03/18 02:26:22;;;;;;;0.00;0.00;;;11.20;1.00;;;;;;5035746;28;20050;-82
2023/03/18 02:28:50;;;;;;;0.73;0.10;;;11.20;1.00;;;;;;5035831;28;20052;-83
2023/03/18 02:31:18;;;;;;;0.00;0.00;;;11.20;1.00;;;;;;5035679;28;20049;-82
2023/03/18 02:33:45;;;;;;;0.00;0.00;;;11.20;1.00;;;;;;5036477;28;20048;-82
2023/03/18 02:36:20;;;;;;;0.13;0.10;;;11.10;1.00;;;;;;5019243;28;20049;-82
2023/03/18 02:38:47;;;;;;;0.47;0.40;;;11.10;1.00;;;;;;5035577;28;20047;-83
2023/03/18 02:41:21;;;;;;;0.00;0.00;;;11.10;1.00;;;;;;5036617;28;20050;-83
2023/03/18 02:43:48;;;;;;;0.00;0.00;;;11.10;1.00;;;;;;5035316;28;20049;-82
2023/03/18 02:46:37;;;;;;;2.67;0.45;;;11.10;1.00;;;;;;5018316;28;20056;-83
2023/03/18 02:49:06;;;;;;;0.00;0.00;;;11.10;1.00;;;;;;5035580;28;20050;-83
2023/03/18 02:51:33;;;;;;;0.00;0.00;;;11.10;1.00;;;;;;5035377;28;20405;-83
2023/03/18 02:54:11;;;;;;;0.00;0.00;;;11.10;1.00;;;;;;5002284;28;20084;-82
2023/03/18 02:56:38;;;;;;;0.00;0.00;;;11.10;1.00;;;;;;5035102;28;20563;-83
2023/03/18 02:59:04;;;;;;;0.17;0.00;;;11.10;1.00;;;;;;5035125;28;20049;-82
2023/03/18 03:01:32;;;;;;;0.00;0.00;;;11.10;1.00;;;;;;5035206;28;20486;-82
2023/03/18 03:03:58;;;;;;;0.00;0.00;;;11.10;1.00;;;;;;5035345;28;20053;-83
2023/03/18 03:06:24;;;;;;;0.00;0.00;;;11.00;1.00;;;;;;5018569;28;20049;-82
2023/03/18 03:08:50;;;;;;;0.30;0.30;;;11.10;1.00;;;;;;5018309;28;20498;-83
2023/03/18 03:11:17;;;;;;;0.35;0.35;;;11.00;1.00;;;;;;5018258;28;20060;-83
2023/03/18 03:13:46;;;;;;;0.00;0.00;;;11.00;1.00;;;;;;5034977;28;20041;-83
2023/03/18 03:16:14;;;;;;;0.13;0.13;;;10.90;1.00;;;;;;5017856;28;20049;-82
2023/03/18 03:18:40;;;;;;;0.00;0.00;;;10.90;1.00;;;;;;5033887;28;20089;-83
2023/03/18 03:21:07;;;;;;;0.30;0.30;;;10.90;1.00;;;;;;5018329;28;20057;-82
2023/03/18 03:23:34;;;;;;;0.00;0.00;;;10.90;1.00;;;;;;5018206;28;20089;-83
2023/03/18 03:26:00;;;;;;;3.08;0.45;;;10.80;1.00;;;;;;5018430;28;20060;-83
2023/03/18 03:28:26;;;;;;;0.10;0.10;;;10.80;1.00;;;;;;5002137;28;20045;-82
2023/03/18 03:30:54;;;;;;;0.35;0.10;;;10.90;1.00;;;;;;5034695;28;20050;-83
2023/03/18 03:33:20;;;;;;;0.00;0.00;;;10.80;1.00;;;;;;5034437;28;20057;-83
2023/03/18 03:35:46;;;;;;;0.00;0.00;;;10.90;1.00;;;;;;5034466;28;20049;-83
2023/03/18 03:38:12;;;;;;;0.00;0.00;;;10.80;1.00;;;;;;5001346;28;20048;-83
2023/03/18 03:40:38;;;;;;;2.35;0.35;;;10.90;1.00;;;;;;5018701;28;20084;-82
2023/03/18 03:43:05;;;;;;;0.00;0.00;;;10.80;1.00;;;;;;5034424;28;20135;-83
2023/03/18 03:45:31;;;;;;;0.00;0.00;;;10.80;1.00;;;;;;5016855;28;20425;-83
2023/03/18 03:47:56;;;;;;;0.00;0.00;;;10.80;1.00;;;;;;5017863;28;20417;-83
2023/03/18 03:50:22;;;;;;;0.00;0.00;;;10.80;1.00;;;;;;5034488;28;20049;-82
2023/03/18 03:52:48;;;;;;;0.30;0.00;;;10.80;1.00;;;;;;5017624;28;20049;-82
2023/03/18 03:55:17;;;;;;;0.25;0.25;;;10.70;1.00;;;;;;5017981;28;20056;-83
2023/03/18 03:57:43;;;;;;;0.00;0.00;;;10.70;1.00;;;;;;5034120;28;20110;-83
2023/03/18 04:00:15;;;;;;;0.00;0.00;;;10.70;1.00;;;;;;5033984;28;20424;-83
2023/03/18 04:02:43;;;;;;;0.25;0.25;;;10.60;1.40;;;;;;5033949;28;20497;-83
2023/03/18 04:05:11;;;;;;;0.00;0.00;;;10.60;7.70;;;;;;5017481;28;20490;-83
2023/03/18 04:07:38;;;;;;;0.32;0.30;;;10.60;10.10;;;;;;5033719;28;20053;-83
2023/03/18 04:10:04;;;;;;;0.00;0.00;;;10.60;6.00;;;;;;5033665;28;20049;-83
2023/03/18 04:12:30;;;;;;;0.00;0.00;;;10.60;9.20;;;;;;5033959;28;20612;-83
2023/03/18 04:14:56;;;;;;;0.32;0.20;;;10.50;11.40;;;;;;5033291;28;20179;-83
2023/03/18 04:17:21;;;;;;;0.08;0.00;;;10.50;8.00;;;;;;5001047;28;20045;-83
2023/03/18 04:19:48;;;;;;;0.10;0.00;;;10.50;12.60;;;;;;5033494;28;20071;-83
2023/03/18 04:22:14;;;;;;;0.00;0.00;;;10.40;6.20;;;;;;5033574;28;20541;-83
2023/03/18 04:24:41;;;;;;;0.00;0.00;;;10.40;15.60;;;;;;5033675;28;20072;-83
2023/03/18 04:27:07;;;;;;;0.00;0.00;;;10.50;5.30;;;;;;5033592;28;20053;-83
2023/03/18 04:29:33;;;;;;;0.00;0.00;;;10.40;18.20;;;;;;5016845;28;20049;-82
2023/03/18 04:31:58;;;;;;;0.17;0.17;;;10.40;16.90;;;;;;5016910;28;20052;-82
2023/03/18 04:34:24;;;;;;;0.00;0.00;;;10.40;17.90;;;;;;5016874;28;20145;-82
2023/03/18 04:36:50;;;;;;;0.10;0.10;;;10.40;17.20;;;;;;5017046;28;20060;-82
2023/03/18 04:39:16;;;;;;;0.45;0.30;;;10.40;14.30;;;;;;5000406;28;20569;-83
2023/03/18 04:41:42;;;;;;;0.10;0.00;;;10.40;23.90;;;;;;5033571;28;20168;-83
2023/03/18 04:44:08;;;;;;;0.45;0.05;;;10.40;21.20;;;;;;5016485;28;20506;-82
2023/03/18 04:46:34;;;;;;;0.47;0.30;;;10.40;22.40;;;;;;5032258;28;20572;-82
2023/03/18 04:49:02;;;;;;;0.17;0.15;;;10.40;23.80;;;;;;5016163;28;20053;-83
2023/03/18 04:51:28;;;;;;;0.00;0.00;;;10.50;26.30;;;;;;5016624;28;20049;-82
2023/03/18 04:53:54;;;;;;;2.88;0.77;;;10.50;22.00;;;;;;5033107;28;20053;-83
2023/03/18 04:56:20;;;;;;;0.70;0.10;;;10.50;23.50;;;;;;5016750;28;20489;-82
2023/03/18 04:58:46;;;;;;;0.00;0.00;;;10.50;25.90;;;;;;5032899;28;20051;-83
2023/03/18 05:01:12;;;;;;;0.55;0.00;;;10.40;26.00;;;;;;5016465;28;20437;-83
2023/03/18 05:03:42;;;;;;;4.00;0.75;;;10.50;25.30;;;;;;5016556;28;20038;-83
2023/03/18 05:06:14;;;;;;;0.00;0.00;;;10.40;28.10;;;;;;5016444;28;20398;-83
2023/03/18 05:08:40;;;;;;;0.00;0.00;;;10.50;25.90;;;;;;5032717;28;20064;-82
2023/03/18 05:11:05;;;;;;;0.00;0.00;;;10.50;27.10;;;;;;5032535;28;20184;-83
2023/03/18 05:13:31;;;;;;;0.10;0.10;;;10.50;27.70;;;;;;5016599;28;20049;-82
2023/03/18 05:15:58;;;;;;;0.57;0.10;;;10.50;30.60;;;;;;4999116;28;20132;-82
2023/03/18 05:18:23;;;;;;;1.20;0.15;;;10.50;31.20;;;;;;5033234;28;20068;-83
2023/03/18 05:20:49;;;;;;;0.00;0.00;;;10.50;30.30;;;;;;5032633;28;20509;-83
2023/03/18 05:23:15;;;;;;;0.00;0.00;;;10.50;30.20;;;;;;5032554;28;20041;-83
2023/03/18 05:25:41;;;;;;;0.00;0.00;;;10.40;25.60;;;;;;5032847;28;20095;-82
2023/03/18 05:28:06;;;;;;;0.00;0.00;;;10.40;32.00;;;;;;5016197;28;20057;-82
2023/03/18 05:30:33;;;;;;;0.00;0.00;;;10.50;33.70;;;;;;5016078;28;20137;-83
2023/03/18 05:32:59;;;;;;;0.00;0.00;;;10.40;32.80;;;;;;5016109;28;20056;-83
2023/03/18 05:35:24;;;;;;;0.52;0.25;;;10.50;35.00;;;;;;5016106;28;20460;-83
2023/03/18 05:37:50;;;;;;;0.00;0.00;;;10.40;33.60;;;;;;4999111;28;20516;-83
2023/03/18 05:40:16;;;;;;;0.00;0.00;;;10.40;33.70;;;;;;4999998;28;20089;-83
2023/03/18 05:42:42;;;;;;;0.43;0.15;;;10.50;35.70;;;;;;5036831;28;20390;-83
2023/03/18 05:45:09;;;;;;;0.00;0.00;;;10.40;33.40;;;;;;5019367;28;20421;-83
2023/03/18 05:47:35;;;;;;;0.00;0.00;;;10.50;35.30;;;;;;5003631;28;20096;-83
2023/03/18 05:50:02;;;;;;;0.00;0.00;;;10.40;38.40;;;;;;5020279;28;20396;-83
2023/03/18 05:52:28;;;;;;;0.20;0.00;;;10.40;35.80;;;;;;5036371;28;20098;-83
2023/03/18 05:54:54;;;;;;;0.57;0.13;;;10.40;40.10;;;;;;5019720;28;20041;-83
2023/03/18 05:57:20;;;;;;;0.88;0.25;;;10.50;34.00;;;;;;5003343;28;20462;-83
2023/03/18 05:59:46;;;;;;;0.47;0.10;;;10.40;39.60;;;;;;5019451;28;20045;-83
2023/03/18 06:02:12;;;;;;;0.00;0.00;;;10.40;41.60;;;;;;5035987;28;20504;-83
2023/03/18 06:04:39;;;;;;;0.00;0.00;;;10.40;45.60;;;;;;5036327;28;20076;-82
2023/03/18 06:07:05;;;;;;;0.05;0.00;;;10.40;44.80;;;;;;5019638;28;20053;-83
2023/03/18 06:09:33;;;;;;;0.00;0.00;;;10.40;42.60;;;;;;5003253;28;20401;-83
2023/03/18 06:11:58;;;;;;;0.00;0.00;;;10.40;43.30;;;;;;5019418;28;20052;-83
2023/03/18 06:14:28;;;;;;;0.10;0.10;;;10.40;41.80;;;;;;5036061;28;20041;-83
2023/03/18 06:16:55;;;;;;;0.20;0.20;;;10.40;41.20;;;;;;5018839;28;20081;-81
2023/03/18 06:19:21;;;;;;;0.00;0.00;;;10.50;37.90;;;;;;5020001;28;20045;-82
2023/03/18 06:21:47;;;;;;;0.00;0.00;;;10.40;46.00;;;;;;5036151;28;20068;-83
2023/03/18 06:24:14;;;;;;;2.95;0.10;;;10.50;41.60;;;;;;5035824;28;20505;-83
2023/03/18 06:26:40;;;;;;;0.43;0.35;;;10.50;42.40;;;;;;5019609;28;20080;-83
2023/03/18 06:29:07;;;;;;;0.25;0.15;;;10.50;47.30;;;;;;5035693;28;20049;-83
2023/03/18 06:31:33;;;;;;;0.00;0.00;;;10.50;42.90;;;;;;5019083;28;20075;-83
2023/03/18 06:33:59;;;;;;;0.20;0.20;;;10.50;49.00;;;;;;5035533;28;20064;-83
2023/03/18 06:36:25;;;;;;;0.00;0.00;;;10.50;50.40;;;;;;5019186;28;20391;-83
2023/03/18 06:38:52;;;;;;;0.05;0.00;;;10.60;52.40;;;;;;4986509;28;20095;-83
2023/03/18 06:41:18;;;;;;;0.10;0.10;;;10.60;52.00;;;;;;5019285;28;20080;-83
2023/03/18 06:43:46;;;;;;;0.17;0.17;;;10.60;46.40;;;;;;5035347;28;20049;-83
2023/03/18 06:46:13;;;;;;;0.08;0.08;;;10.70;54.80;;;;;;5002360;28;20061;-83
2023/03/18 06:48:39;;;;;;;0.00;0.00;;;10.80;56.40;;;;;;5035669;28;20053;-83
2023/03/18 06:51:06;;;;;;;0.10;0.00;;;10.80;57.40;;;;;;5035144;28;20393;-83
2023/03/18 06:53:34;;;;;;;0.20;0.00;;;10.80;55.20;;;;;;5035553;28;20407;-82
2023/03/18 06:55:59;;;;;;;0.45;0.22;;;10.80;54.00;;;;;;5035325;28;20128;-82
2023/03/18 06:58:25;;;;;;;0.20;0.20;;;10.80;52.60;;;;;;4986036;28;20132;-82
2023/03/18 07:00:51;;;;;;;0.00;0.00;;;10.80;60.20;;;;;;5034792;28;20494;-82
2023/03/18 07:03:17;;;;;;;0.35;0.32;;;10.80;61.30;;;;;;5035279;28;20152;-82
2023/03/18 07:05:43;;;;;;;0.08;0.03;;;10.80;66.70;;;;;;5002660;28;20045;-82
2023/03/18 07:08:09;;;;;;;0.40;0.40;;;10.80;64.70;;;;;;5035013;28;20038;-82
2023/03/18 07:10:35;;;;;;;0.45;0.20;;;10.90;60.10;;;;;;5035191;28;20071;-83
2023/03/18 07:13:01;;;;;;;0.00;0.00;;;10.90;68.40;;;;;;5018402;28;20460;-83
2023/03/18 07:15:27;;;;;;;0.10;0.10;;;10.90;68.10;;;;;;5017714;28;20045;-82
2023/03/18 07:17:53;;;;;;;0.00;0.00;;;10.90;69.00;;;;;;5034887;28;20053;-82
2023/03/18 07:20:21;;;;;;;0.00;0.00;;;10.90;72.80;;;;;;5018075;28;20486;-83
2023/03/18 07:22:47;;;;;;;0.20;0.20;;;10.90;71.80;;;;;;5018669;28;20049;-83
2023/03/18 07:25:15;;;;;;;0.03;0.00;;;10.80;75.70;;;;;;5025171;28;20056;-85
2023/03/18 07:27:41;;;;;;;0.00;0.00;;;10.80;73.10;;;;;;5054365;28;20044;-81
2023/03/18 07:30:11;;;;;;;0.45;0.13;;;10.80;77.50;;;;;;5021505;28;20053;-81
2023/03/18 07:32:37;;;;;;;0.00;0.00;;;10.80;83.60;;;;;;5054621;28;20041;-81
2023/03/18 07:35:04;;;;;;;0.10;0.00;;;10.80;82.90;;;;;;5038109;28;20060;-81
2023/03/18 07:37:32;;;;;;;0.00;0.00;;;10.70;90.10;;;;;;5021431;28;20056;-83
2023/03/18 07:39:58;;;;;;;0.00;0.00;;;10.70;90.70;;;;;;5054197;28;20531;-86
2023/03/18 07:42:23;;;;;;;0.08;0.08;;;10.70;92.50;;;;;;5054469;28;20044;-82
2023/03/18 07:44:49;;;;;;;0.55;0.35;;;10.70;92.10;;;;;;5053572;28;20063;-83
2023/03/18 07:47:15;;;;;;;0.00;0.00;;;10.70;93.10;;;;;;5053700;28;20187;-82
2023/03/18 07:49:41;;;;;;;0.05;0.00;;;10.80;94.30;;;;;;5037725;28;20053;-82
2023/03/18 07:52:08;;;;;;;0.00;0.00;;;10.80;96.20;;;;;;5054005;28;20404;-82
2023/03/18 07:54:34;;;;;;;0.00;0.00;;;10.80;96.40;;;;;;5037508;28;20049;-82
2023/03/18 07:57:00;;;;;;;0.47;0.20;;;10.90;96.40;;;;;;5053830;28;20111;-83
2023/03/18 07:59:26;;;;;;;0.08;0.00;;;10.90;96.50;;;;;;5053938;28;20129;-83
2023/03/18 08:01:52;;;;;;;0.10;0.10;;;11.00;96.70;;;;;;5037455;28;20128;-83
2023/03/18 08:04:18;;;;;;;0.00;0.00;;;11.10;96.20;;;;;;5053089;28;20156;-83
2023/03/18 08:06:44;;;;;;;2.03;0.38;;;11.10;97.00;;;;;;5053955;28;20049;-83
2023/03/18 08:09:10;;;;;;;0.00;0.00;;;11.10;97.50;;;;;;5037352;28;20056;-83
2023/03/18 08:11:35;;;;;;;4.57;0.82;;;11.20;97.40;;;;;;5053618;28;20401;-83
2023/03/18 08:14:01;;;;;;;0.00;0.00;;;11.10;98.10;;;;;;5054998;28;20057;-83
2023/03/18 08:16:27;;;;;;;0.00;0.00;;;11.20;98.70;;;;;;5004002;28;20056;-83
2023/03/18 08:18:53;;;;;;;0.10;0.10;;;11.20;98.80;;;;;;5053547;28;20041;-83
2023/03/18 08:21:18;;;;;;;0.17;0.17;;;11.20;99.50;;;;;;5037206;28;20118;-84
2023/03/18 08:23:44;;;;;;;0.28;0.17;;;11.30;99.10;;;;;;5020527;28;20057;-83
2023/03/18 08:26:10;;;;;;;0.43;0.43;;;11.40;99.60;;;;;;5020463;28;20052;-83
2023/03/18 08:28:36;;;;;;;0.10;0.10;;;11.50;99.80;;;;;;5044836;28;20053;-83
2023/03/18 08:31:03;;;;;;;0.00;0.00;;;11.70;99.90;;;;;;5000799;28;20383;-83
2023/03/18 08:33:29;;;;;;;0.00;0.00;;;11.90;99.90;;;;;;5017076;28;20049;-83
2023/03/18 08:35:56;;;;;;;0.35;0.35;;;12.10;99.10;;;;;;5016748;28;20095;-83
2023/03/18 08:38:23;;;;;;;0.00;0.00;;;12.30;96.50;;;;;;5033066;28;20505;-83
2023/03/18 08:40:50;;;;;;;0.90;0.20;;;12.60;96.50;;;;;;5034248;28;20517;-83
2023/03/18 08:43:16;;;;;;;0.38;0.38;;;12.90;94.30;;;;;;5033502;28;20052;-83
2023/03/18 08:45:42;;;;;;;0.30;0.20;;;13.10;92.40;;;;;;5032370;28;20060;-83
2023/03/18 08:48:08;;;;;;;0.20;0.20;;;13.30;93.70;;;;;;5033254;28;20045;-83
2023/03/18 08:50:35;;;;;;;0.68;0.68;;;13.60;93.10;;;;;;5033266;28;20106;-83
2023/03/18 08:53:02;;;;;;;0.20;0.20;;;13.90;88.50;;;;;;5032921;28;20435;-82
2023/03/18 08:55:38;;;;;;;0.08;0.08;;;14.20;86.80;;;;;;5016420;28;20128;-83
2023/03/18 08:58:04;;;;;;;0.20;0.20;;;14.50;80.60;;;;;;5032642;28;20478;-82
2023/03/18 09:00:31;;;;;;;0.55;0.45;;;14.90;73.20;;;;;;5033927;28;20103;-82
2023/03/18 09:02:57;;;;;;;0.20;0.20;;;15.30;69.30;;;;;;5033023;28;20052;-82
2023/03/18 09:05:23;;;;;;;1.92;1.13;;;15.50;43.70;;;;;;5033008;28;20374;-83
2023/03/18 09:07:50;;;;;;;0.35;0.30;;;15.80;49.60;;;;;;5032147;28;20100;-83
2023/03/18 09:10:17;;;;;;;0.20;0.10;;;15.80;20.60;;;;;;5032491;28;20045;-82
2023/03/18 09:12:44;;;;;;;0.10;0.10;;;15.50;10.00;;;;;;5016471;28;20088;-82
2023/03/18 09:15:11;;;;;;;0.13;0.13;;;15.50;23.30;;;;;;5032107;28;20053;-83
2023/03/18 09:17:41;;;;;;;0.95;0.75;;;15.50;16.30;;;;;;5032255;28;20049;-82
2023/03/18 09:20:09;;;;;;;0.20;0.15;;;15.30;4.40;;;;;;5032364;28;20080;-82
2023/03/18 09:22:35;;;;;;;1.75;0.20;;;15.40;24.20;;;;;;5016393;28;20129;-82
2023/03/18 09:25:01;;;;;;;0.00;0.00;;;15.60;18.80;;;;;;5016306;28;20049;-82
2023/03/18 09:27:27;;;;;;;0.20;0.20;;;15.80;1.00;;;;;;5016248;28;20053;-82
2023/03/18 09:29:53;;;;;;;0.60;0.45;;;15.70;1.10;;;;;;5033593;28;20128;-82
2023/03/18 09:32:18;;;;;;;0.00;0.00;;;15.60;1.00;;;;;;5032600;28;20049;-82
2023/03/18 09:34:45;;;;;;;0.00;0.00;;;15.50;1.00;;;;;;5032418;28;20045;-82
2023/03/18 09:37:12;;;;;;;0.25;0.25;;;15.40;1.00;;;;;;5015939;28;20050;-82
2023/03/18 09:39:38;;;;;;;0.22;0.00;;;15.30;1.00;;;;;;5015941;28;20052;-82
2023/03/18 09:42:23;;;;;;;0.88;0.25;;;15.40;1.00;;;;;;5032430;28;20045;-82
2023/03/18 09:44:57;;;;;;;0.52;0.52;;;15.80;1.00;;;;;;5015963;28;20061;-82
2023/03/18 09:47:32;;;;;;;0.75;0.50;;;16.00;1.00;;;;;;5031710;28;20436;-82
2023/03/18 09:50:17;;;;;;;0.32;0.32;;;16.20;1.00;;;;;;5032965;28;20099;-81
2023/03/18 09:52:58;;;;;;;0.00;0.00;;;16.20;1.00;;;;;;5032508;28;20084;-82
2023/03/18 09:55:48;;;;;;;1.30;0.75;;;16.10;1.00;;;;;;5032653;28;20064;-82
2023/03/18 09:58:43;;;;;;;0.17;0.17;;;16.00;1.00;;;;;;5032301;28;20128;-81
2023/03/18 10:01:10;;;;;;;0.20;0.20;;;15.60;1.00;;;;;;4995550;28;20123;-81
2023/03/18 10:04:00;;;;;;;0.30;0.28;;;15.40;1.00;;;;;;5033245;28;20397;-82
2023/03/18 10:06:26;;;;;;;0.28;0.28;;;15.20;1.00;;;;;;5032234;28;20041;-82
2023/03/18 10:09:20;;;;;;;0.40;0.20;;;15.20;1.00;;;;;;5032396;28;20481;-82
2023/03/18 10:11:47;;;;;;;0.00;0.00;;;15.10;1.00;;;;;;5032730;28;20049;-82
2023/03/18 10:14:25;;;;;;;0.20;0.20;;;15.40;15.70;;;;;;5032204;28;20057;-82
2023/03/18 10:17:03;;;;;;;0.10;0.10;;;15.60;1.10;;;;;;5015281;28;20142;-82
2023/03/18 10:19:30;;;;;;;0.10;0.00;;;15.70;1.00;;;;;;5032492;28;20490;-82
2023/03/18 10:22:16;;;;;;;0.10;0.10;;;15.60;1.00;;;;;;5031884;28;20041;-82
2023/03/18 10:24:52;;;;;;;0.10;0.10;;;15.50;1.00;;;;;;5031374;28;20124;-81
2023/03/18 10:27:37;;;;;;;0.13;0.13;;;15.30;1.00;;;;;;5034043;28;20063;-82
2023/03/18 10:30:12;;;;;;;;;;;15.10;1.00;;;;;;5036583;28;20076;-82
2023/03/18 10:32:51;;;;;;;0.25;0.25;;;15.10;1.00;;;;;;5035868;28;20270;-82
2023/03/18 10:35:33;;;;;;;0.20;0.20;;;15.40;1.00;;;;;;5035799;28;20050;-83
2023/03/18 10:38:10;;;;;;;0.00;0.00;;;15.80;1.00;;;;;;5035948;28;20081;-82
2023/03/18 10:40:40;;;;;;;0.43;0.28;;;16.30;1.00;;;;;;5019050;28;20041;-83
2023/03/18 10:43:18;;;;;;;0.20;0.20;;;16.70;1.00;;;;;;5035499;28;20045;-82
2023/03/18 10:45:47;;;;;;;0.05;0.03;;;17.30;1.00;;;;;;5036345;28;20057;-83
2023/03/18 10:48:37;;;;;;;0.10;0.00;;;17.50;1.00;;;;;;5035347;28;20528;-83
2023/03/18 10:51:39;;;;;;;0.10;0.10;;;17.30;86.70;;;;;;5035671;28;20041;-81
2023/03/18 10:54:17;;;;;;;0.10;0.10;;;17.10;1.00;;;;;;5035231;28;20132;-81
2023/03/18 10:56:42;;;;;;;0.00;0.00;;;17.10;97.00;;;;;;5036040;28;20450;-81
2023/03/18 10:59:15;;;;;;;0.10;0.10;;;17.20;52.00;;;;;;5035071;28;20088;-81
2023/03/18 11:01:44;;;;;;;0.00;0.00;;;17.50;1.00;;;;;;5035389;28;20555;-81
2023/03/18 11:04:20;;;;;;;0.17;0.13;;;17.70;99.90;;;;;;5018666;28;20049;-81
2023/03/18 11:07:04;;;;;;;0.30;0.20;;;17.90;99.90;;;;;;5018449;28;20049;-81
2023/03/18 11:09:33;;;;;;;0.03;0.03;;;17.90;99.90;;;;;;5034839;28;20154;-81
2023/03/18 11:12:05;;;;;;;0.10;0.10;;;17.70;1.00;;;;;;5034897;28;20061;-81
2023/03/18 11:14:32;;;;;;;0.00;0.00;;;17.90;91.60;;;;;;5034656;28;20636;-81
2023/03/18 11:17:03;;;;;;;0.90;0.35;;;18.10;1.00;;;;;;5017878;28;20504;-82
2023/03/18 11:19:38;;;;;;;0.00;0.00;;;18.20;99.90;;;;;;5036152;28;20037;-82
2023/03/18 11:22:17;;;;;;;;;;;18.20;99.90;;;;;;5036725;28;20379;-82
2023/03/18 11:24:43;;;;;;;0.70;0.10;;;18.10;99.90;;;;;;5018301;28;19921;-81
2023/03/18 11:27:15;;;;;;;0.00;0.00;;;18.20;1.00;;;;;;5034762;28;20137;-82
2023/03/18 11:29:57;;;;;;;0.00;0.00;;;18.10;4.90;;;;;;5018051;28;20513;-82
2023/03/18 11:32:26;;;;;;;0.00;0.00;;;18.10;1.00;;;;;;5034766;28;20128;-82
2023/03/18 11:35:06;;;;;;;0.08;0.08;;;18.30;99.90;;;;;;5018131;28;20076;-82
2023/03/18 11:37:38;;;;;;;0.20;0.20;;;18.40;99.90;;;;;;5033949;28;20056;-81
2023/03/18 11:40:13;;;;;;;0.63;0.63;;;18.60;99.90;;;;;;5034951;28;20103;-83
2023/03/18 11:42:40;;;;;;;0.00;0.00;;;18.60;1.00;;;;;;5018048;28;20049;-82
2023/03/18 11:45:40;;;;;;;1.27;0.10;;;18.80;1.00;;;;;;5034637;28;20088;-82
2023/03/18 11:48:14;;;;;;;0.10;0.10;;;18.70;99.90;;;;;;5008699;28;20053;-82
2023/03/18 11:51:04;;;;;;;0.00;0.00;;;18.60;99.90;;;;;;5034393;28;20059;-82
2023/03/18 11:54:02;;;;;;;0.35;0.35;;;18.60;19.10;;;;;;5003886;28;20111;-82
2023/03/18 11:56:43;;;;;;;0.45;0.25;;;18.50;92.00;;;;;;5034382;28;20132;-83
2023/03/18 11:59:39;;;;;;;0.20;0.20;;;18.70;99.90;;;;;;5034037;28;20437;-82
2023/03/18 12:02:28;;;;;;;0.10;0.00;;;18.50;99.90;;;;;;5033842;28;20457;-82
2023/03/18 12:05:11;;;;;;;0.00;0.00;;;18.40;99.90;;;;;;5034191;28;20413;-82
2023/03/18 12:07:55;;;;;;;0.00;0.00;;;18.20;99.90;;;;;;5034016;28;20081;-82
2023/03/18 12:10:28;;;;;;;0.00;0.00;;;18.10;99.90;;;;;;5034109;28;20049;-82
2023/03/18 12:13:24;;;;;;;0.00;0.00;;;18.00;99.90;;;;;;5033997;28;20300;-82
2023/03/18 12:16:00;;;;;;;0.85;0.20;;;17.90;1.00;;;;;;5023292;28;20069;-82
2023/03/18 12:18:28;;;;;;;0.73;0.55;;;17.60;99.90;;;;;;5033833;28;20049;-82
2023/03/18 12:21:03;;;;;;;0.55;0.35;;;17.50;1.00;;;;;;5033549;28;20128;-82
2023/03/18 12:23:41;;;;;;;;;;;17.40;99.90;;;;;;5034253;28;20102;-82
2023/03/18 12:26:36;;;;;;;0.80;0.32;;;17.20;99.90;;;;;;5033335;28;19928;-82
2023/03/18 12:29:23;;;;;;;0.15;0.15;;;17.00;99.90;;;;;;5017241;28;20171;-82
2023/03/18 12:32:04;;;;;;;0.00;0.00;;;16.90;99.90;;;;;;5033581;28;20049;-81
2023/03/18 12:35:16;;;;;;;0.00;0.00;;;16.80;1.00;;;;;;5033493;28;20050;-81
2023/03/18 12:38:27;;;;;;;0.00;0.00;;;16.90;1.00;;;;;;5033521;28;20049;-81
2023/03/18 12:41:01;;;;;;;0.00;0.00;;;16.90;1.00;;;;;;5033563;28;20128;-81
2023/03/18 12:43:50;;;;;;;0.40;0.20;;;16.90;1.00;;;;;;5017069;28;20085;-81
2023/03/18 12:46:26;;;;;;;0.10;0.10;;;17.00;93.40;;;;;;5032378;28;20061;-81
2023/03/18 12:49:18;;;;;;;0.10;0.10;;;17.10;99.90;;;;;;5033054;28;20057;-82
2023/03/18 12:52:05;;;;;;;0.10;0.10;;;17.10;99.90;;;;;;5033225;28;20046;-81
2023/03/18 12:54:46;;;;;;;0.00;0.00;;;17.30;99.90;;;;;;5016683;28;20494;-81
2023/03/18 12:57:36;;;;;;;0.30;0.22;;;17.50;1.00;;;;;;5033120;28;20053;-81
2023/03/18 13:00:29;;;;;;;0.00;0.00;;;17.50;99.90;;;;;;5019827;28;20054;-82
2023/03/18 13:03:14;;;;;;;1.55;0.40;;;17.60;99.90;;;;;;5022372;28;20581;-82
2023/03/18 13:05:44;;;;;;;;;;;17.80;99.90;;;;;;5017026;28;20049;-81
2023/03/18 13:08:42;;;;;;;0.10;0.00;;;17.90;99.90;;;;;;5032951;28;20020;-82